createdAt,value
2023-02-27T00:03:15.411Z,100.00
2023-02-27T00:08:18.422Z,100.00
2023-02-27T00:13:21.540Z,100.00
2023-02-27T00:18:24.538Z,100.00
2023-02-27T00:23:28.872Z,100.00
2023-02-27T00:28:32.092Z,100.00
2023-02-27T00:33:35.088Z,100.00
2023-02-27T00:38:37.992Z,100.00
2023-02-27T00:43:41.203Z,100.00
2023-02-27T00:48:44.108Z,100.00
2023-02-27T00:53:47.225Z,100.00
2023-02-27T00:58:50.323Z,100.00
2023-02-27T01:03:53.328Z,100.00
2023-02-27T01:08:56.337Z,100.00
2023-02-27T01:13:59.446Z,100.00
2023-02-27T01:19:02.871Z,100.00
2023-02-27T01:24:06.331Z,100.00
2023-02-27T01:29:09.185Z,100.00
2023-02-27T01:34:12.193Z,100.00
2023-02-27T01:39:15.199Z,100.00
2023-02-27T01:44:18.797Z,100.00
2023-02-27T01:49:32.473Z,100.00
2023-02-27T01:54:38.960Z,100.00
2023-02-27T01:59:43.518Z,100.00
2023-02-27T02:04:47.436Z,100.00
2023-02-27T02:09:54.016Z,100.00
2023-02-27T02:14:57.134Z,100.00
2023-02-27T02:20:32.492Z,100.00
2023-02-27T02:26:04.277Z,100.00
2023-02-27T02:31:10.044Z,100.00
2023-02-27T02:36:15.822Z,100.00
2023-02-27T02:41:40.124Z,100.00
2023-02-27T02:46:56.957Z,100.00
2023-02-27T02:52:10.922Z,100.00
2023-02-27T02:57:29.360Z,100.00
2023-02-27T03:02:37.731Z,100.00
2023-02-27T03:07:53.335Z,100.00
2023-02-27T03:13:02.371Z,100.00
2023-02-27T03:18:19.726Z,100.00
2023-02-27T03:23:38.588Z,100.00
2023-02-27T03:28:55.519Z,100.00
2023-02-27T03:34:11.737Z,100.00
2023-02-27T03:39:47.522Z,100.00
2023-02-27T03:45:13.869Z,100.00
2023-02-27T03:50:17.175Z,100.00
2023-02-27T03:55:35.055Z,100.00
2023-02-27T04:00:38.151Z,100.00
2023-02-27T04:05:41.817Z,100.00
2023-02-27T04:11:12.011Z,100.00
2023-02-27T04:16:48.703Z,100.00
2023-02-27T04:22:10.656Z,100.00
2023-02-27T04:28:04.658Z,100.00
2023-02-27T04:33:09.519Z,100.00
2023-02-27T04:38:35.383Z,100.00
2023-02-27T04:43:40.233Z,100.00
2023-02-27T04:48:55.201Z,100.00
2023-02-27T04:54:09.568Z,100.00
2023-02-27T04:59:20.598Z,100.00
2023-02-27T05:04:26.345Z,100.00
2023-02-27T05:09:41.629Z,100.00
2023-02-27T05:15:10.239Z,100.00
2023-02-27T05:20:15.238Z,100.00
2023-02-27T05:25:29.739Z,100.00
2023-02-27T05:30:46.403Z,100.00
2023-02-27T05:36:06.219Z,100.00
2023-02-27T05:41:17.417Z,100.00
2023-02-27T05:46:28.482Z,99.96
2023-02-27T05:51:35.441Z,99.35
2023-02-27T05:56:40.502Z,98.90
2023-02-27T06:01:46.199Z,99.37
2023-02-27T06:06:49.416Z,98.55
2023-02-27T06:11:52.327Z,98.70
2023-02-27T06:16:55.471Z,99.02
2023-02-27T06:21:58.440Z,98.63
2023-02-27T06:27:01.343Z,97.25
2023-02-27T06:32:04.387Z,95.97
2023-02-27T06:37:07.450Z,95.85
2023-02-27T06:42:10.872Z,95.30
2023-02-27T06:47:13.980Z,94.63
2023-02-27T06:52:17.081Z,94.76
2023-02-27T06:57:20.105Z,93.44
2023-02-27T07:02:26.250Z,90.53
2023-02-27T07:07:36.324Z,90.18
2023-02-27T07:12:41.133Z,88.04
2023-02-27T07:17:44.099Z,87.82
2023-02-27T07:22:47.308Z,88.15
2023-02-27T07:27:51.140Z,87.76
2023-02-27T07:32:54.239Z,86.48
2023-02-27T07:37:57.358Z,84.60
2023-02-27T07:43:00.473Z,83.43
2023-02-27T07:48:03.580Z,82.76
2023-02-27T07:53:08.206Z,78.59
2023-02-27T07:58:11.337Z,76.22
2023-02-27T08:03:14.537Z,74.68
2023-02-27T08:08:18.056Z,71.55
2023-02-27T08:13:42.318Z,70.02
2023-02-27T08:18:44.349Z,67.31
2023-02-27T08:23:47.357Z,67.46
2023-02-27T08:28:50.635Z,66.81
2023-02-27T08:34:01.099Z,67.70
2023-02-27T08:39:11.008Z,66.94
2023-02-27T08:44:14.017Z,68.48
2023-02-27T08:49:17.149Z,69.07
2023-02-27T08:54:20.958Z,65.88
2023-02-27T08:59:24.057Z,65.89
2023-02-27T09:04:27.479Z,66.51
2023-02-27T09:09:30.322Z,66.24
2023-02-27T09:14:33.295Z,65.82
2023-02-27T09:19:36.598Z,67.68
2023-02-27T09:24:39.705Z,65.53
2023-02-27T09:29:43.018Z,66.25
2023-02-27T09:34:46.028Z,65.80
2023-02-27T09:39:48.933Z,65.03
2023-02-27T09:44:56.856Z,65.18
2023-02-27T09:50:04.773Z,64.97
2023-02-27T09:55:20.589Z,64.26
2023-02-27T10:00:42.126Z,64.15
2023-02-27T10:06:00.597Z,64.74
2023-02-27T10:11:12.227Z,64.70
2023-02-27T10:16:19.265Z,63.48
2023-02-27T10:21:31.027Z,61.91
2023-02-27T10:26:38.684Z,61.15
2023-02-27T10:31:44.431Z,62.14
2023-02-27T10:36:48.081Z,62.00
2023-02-27T10:41:52.141Z,61.51
2023-02-27T10:46:55.038Z,60.22
2023-02-27T10:52:24.180Z,61.92
2023-02-27T10:57:30.780Z,61.04
2023-02-27T11:02:40.535Z,59.37
2023-02-27T11:07:45.082Z,59.71
2023-02-27T11:13:06.678Z,60.77
2023-02-27T11:18:20.736Z,61.28
2023-02-27T11:23:25.240Z,60.25
2023-02-27T11:28:30.709Z,58.98
2023-02-27T11:33:41.925Z,59.24
2023-02-27T11:38:55.566Z,59.03
2023-02-27T11:44:02.362Z,56.55
2023-02-27T11:49:17.636Z,57.33
2023-02-27T11:54:34.886Z,57.24
2023-02-27T11:59:45.049Z,56.09
2023-02-27T12:05:42.226Z,56.78
2023-02-27T12:10:52.906Z,57.72
2023-02-27T12:16:16.830Z,57.81
2023-02-27T12:21:24.450Z,58.07
2023-02-27T12:26:33.085Z,58.46
2023-02-27T12:31:36.111Z,60.37
2023-02-27T12:36:39.285Z,59.66
2023-02-27T12:41:44.232Z,59.71
2023-02-27T12:46:59.414Z,59.34
2023-02-27T12:52:05.103Z,58.71
2023-02-27T12:57:08.198Z,58.77
2023-02-27T13:02:49.914Z,58.47
2023-02-27T13:08:24.263Z,58.62
2023-02-27T13:13:38.840Z,59.27
2023-02-27T13:18:55.082Z,58.16
2023-02-27T13:24:32.483Z,58.64
2023-02-27T13:29:41.003Z,56.41
2023-02-27T13:34:50.126Z,55.82
2023-02-27T13:40:01.394Z,56.97
2023-02-27T13:45:26.072Z,57.55
2023-02-27T13:50:29.175Z,58.00
2023-02-27T13:55:37.818Z,58.13
2023-02-27T14:00:40.926Z,58.34
2023-02-27T14:05:46.896Z,58.94
2023-02-27T14:11:11.819Z,58.40
2023-02-27T14:16:44.213Z,57.55
2023-02-27T14:22:04.220Z,57.63
2023-02-27T14:27:23.257Z,58.04
2023-02-27T14:32:33.994Z,57.56
2023-02-27T14:37:37.213Z,58.66
2023-02-27T14:43:19.424Z,58.65
2023-02-27T14:48:27.939Z,58.63
2023-02-27T14:53:30.963Z,59.86
2023-02-27T14:58:34.180Z,60.63
2023-02-27T15:03:46.972Z,60.96
2023-02-27T15:08:53.335Z,60.56
2023-02-27T15:14:06.738Z,60.78
2023-02-27T15:19:17.748Z,60.99
2023-02-27T15:24:33.198Z,61.11
2023-02-27T15:29:44.538Z,61.64
2023-02-27T15:34:47.763Z,62.11
2023-02-27T15:39:51.868Z,62.85
2023-02-27T15:44:55.906Z,63.04
2023-02-27T15:50:07.424Z,63.43
2023-02-27T15:55:15.066Z,63.84
2023-02-27T16:00:20.561Z,64.60
2023-02-27T16:05:30.732Z,65.36
2023-02-27T16:10:44.841Z,66.21
2023-02-27T16:16:01.589Z,66.83
2023-02-27T16:21:16.302Z,67.51
2023-02-27T16:26:33.283Z,67.96
2023-02-27T16:31:39.100Z,68.67
2023-02-27T16:36:51.912Z,69.35
2023-02-27T16:41:57.052Z,70.38
2023-02-27T16:47:00.157Z,70.59
2023-02-27T16:52:04.093Z,71.10
2023-02-27T16:57:07.106Z,71.53
2023-02-27T17:02:16.275Z,72.16
2023-02-27T17:07:20.073Z,72.57
2023-02-27T17:12:23.035Z,73.46
2023-02-27T17:17:26.195Z,74.22
2023-02-27T17:22:29.214Z,74.56
2023-02-27T17:27:32.511Z,75.03
2023-02-27T17:32:35.517Z,75.58
2023-02-27T17:37:39.040Z,76.09
2023-02-27T17:42:42.054Z,76.91
2023-02-27T17:47:45.065Z,77.48
2023-02-27T17:52:48.592Z,77.83
2023-02-27T17:57:51.682Z,78.79
2023-02-27T18:02:54.702Z,79.43
2023-02-27T18:07:57.785Z,80.13
2023-02-27T18:13:00.691Z,80.21
2023-02-27T18:18:03.798Z,81.19
2023-02-27T18:23:08.933Z,81.91
2023-02-27T18:28:11.963Z,82.42
2023-02-27T18:33:15.600Z,83.10
2023-02-27T18:38:19.166Z,82.79
2023-02-27T18:43:22.721Z,83.58
2023-02-27T18:48:25.940Z,84.38
2023-02-27T18:53:29.047Z,84.18
2023-02-27T18:58:33.000Z,84.28
2023-02-27T19:03:36.318Z,84.53
2023-02-27T19:08:39.295Z,84.29
2023-02-27T19:13:42.309Z,85.15
2023-02-27T19:18:45.316Z,85.31
2023-02-27T19:23:48.521Z,85.67
2023-02-27T19:28:54.212Z,85.57
2023-02-27T19:33:58.036Z,87.08
2023-02-27T19:39:01.845Z,89.18
2023-02-27T19:44:05.220Z,90.60
2023-02-27T19:49:08.158Z,90.91
2023-02-27T19:54:19.042Z,90.38
2023-02-27T19:59:25.504Z,91.14
2023-02-27T20:04:28.918Z,92.05
2023-02-27T20:09:33.460Z,92.11
2023-02-27T20:14:36.921Z,92.28
2023-02-27T20:19:40.218Z,92.00
2023-02-27T20:24:44.878Z,92.50
2023-02-27T20:29:54.819Z,94.22
2023-02-27T20:34:57.943Z,94.45
2023-02-27T20:40:02.128Z,94.16
2023-02-27T20:45:06.000Z,94.84
2023-02-27T20:50:11.377Z,95.12
2023-02-27T20:55:14.286Z,95.10
2023-02-27T21:00:18.813Z,95.22
2023-02-27T21:05:21.831Z,95.06
2023-02-27T21:10:25.521Z,95.44
2023-02-27T21:15:28.557Z,95.63
2023-02-27T21:20:31.988Z,95.49
2023-02-27T21:25:35.081Z,96.00
2023-02-27T21:30:38.190Z,97.13
2023-02-27T21:35:46.853Z,98.24
2023-02-27T21:40:50.032Z,97.69
2023-02-27T21:45:55.981Z,97.29
2023-02-27T21:51:00.483Z,97.73
2023-02-27T21:56:09.793Z,97.82
2023-02-27T22:01:19.386Z,98.00
2023-02-27T22:06:24.409Z,98.49
2023-02-27T22:11:29.027Z,98.35
2023-02-27T22:16:32.295Z,98.56
2023-02-27T22:21:36.568Z,98.64
2023-02-27T22:26:39.999Z,99.05
2023-02-27T22:31:43.808Z,100.00
2023-02-27T22:36:52.822Z,100.00
2023-02-27T22:41:56.907Z,100.00
2023-02-27T22:47:00.045Z,100.00
2023-02-27T22:52:03.058Z,100.00
2023-02-27T22:57:06.168Z,100.00
2023-02-27T23:02:10.355Z,100.00
2023-02-27T23:07:13.407Z,100.00
2023-02-27T23:12:16.419Z,100.00
2023-02-27T23:17:19.521Z,100.00
2023-02-27T23:22:22.628Z,100.00
2023-02-27T23:27:26.580Z,100.00
2023-02-27T23:32:29.715Z,100.00
2023-02-27T23:37:32.674Z,100.00
2023-02-27T23:42:35.785Z,100.00
2023-02-27T23:47:52.199Z,100.00
2023-02-27T23:52:57.464Z,100.00
2023-02-27T23:58:01.781Z,100.00
